sensor_id;sensor_type;location;lat;lon;timestamp;temperature;humidity
5304;DHT22;2674;49.722;10.892;2022-09-01T00:00:45;15.90;99.90
5304;DHT22;2674;49.722;10.892;2022-09-01T00:03:18;15.70;99.90
5304;DHT22;2674;49.722;10.892;2022-09-01T00:05:44;15.90;99.90
5304;DHT22;2674;49.722;10.892;2022-09-01T00:08:12;15.90;99.90
5304;DHT22;2674;49.722;10.892;2022-09-01T00:10:38;15.80;99.90
5304;DHT22;2674;49.722;10.892;2022-09-01T00:13:05;15.70;99.90
5304;DHT22;2674;49.722;10.892;2022-09-01T00:15:33;15.70;99.90
5304;DHT22;2674;49.722;10.892;2022-09-01T00:17:59;15.60;99.90
5304;DHT22;2674;49.722;10.892;2022-09-01T00:20:26;15.60;99.90
5304;DHT22;2674;49.722;10.892;2022-09-01T00:22:52;15.60;99.90
5304;DHT22;2674;49.722;10.892;2022-09-01T00:25:19;15.50;99.90
5304;DHT22;2674;49.722;10.892;2022-09-01T00:27:46;15.50;99.90
5304;DHT22;2674;49.722;10.892;2022-09-01T00:30:16;15.40;99.90
5304;DHT22;2674;49.722;10.892;2022-09-01T00:32:42;15.40;99.90
5304;DHT22;2674;49.722;10.892;2022-09-01T00:35:13;15.50;99.90
5304;DHT22;2674;49.722;10.892;2022-09-01T00:37:39;15.50;99.90
5304;DHT22;2674;49.722;10.892;2022-09-01T00:40:06;15.50;99.90
5304;DHT22;2674;49.722;10.892;2022-09-01T00:42:32;15.50;99.90
5304;DHT22;2674;49.722;10.892;2022-09-01T00:44:58;15.40;99.90
5304;DHT22;2674;49.722;10.892;2022-09-01T00:47:25;15.40;99.90
5304;DHT22;2674;49.722;10.892;2022-09-01T00:49:52;15.40;99.90
5304;DHT22;2674;49.722;10.892;2022-09-01T00:52:28;15.30;99.90
5304;DHT22;2674;49.722;10.892;2022-09-01T00:54:57;15.30;99.90
5304;DHT22;2674;49.722;10.892;2022-09-01T00:57:24;15.20;99.90
5304;DHT22;2674;49.722;10.892;2022-09-01T00:59:58;15.20;99.90
5304;DHT22;2674;49.722;10.892;2022-09-01T01:02:25;15.20;99.90
5304;DHT22;2674;49.722;10.892;2022-09-01T01:04:51;15.10;99.90
5304;DHT22;2674;49.722;10.892;2022-09-01T01:07:21;15.00;99.90
5304;DHT22;2674;49.722;10.892;2022-09-01T01:09:47;15.00;99.90
5304;DHT22;2674;49.722;10.892;2022-09-01T01:12:14;14.90;99.90
5304;DHT22;2674;49.722;10.892;2022-09-01T01:14:47;14.80;99.90
5304;DHT22;2674;49.722;10.892;2022-09-01T01:17:19;14.70;99.90
5304;DHT22;2674;49.722;10.892;2022-09-01T01:19:48;14.70;99.90
5304;DHT22;2674;49.722;10.892;2022-09-01T01:28:12;14.60;99.90
5304;DHT22;2674;49.722;10.892;2022-09-01T01:30:44;14.60;99.90
5304;DHT22;2674;49.722;10.892;2022-09-01T01:33:10;14.60;99.90
5304;DHT22;2674;49.722;10.892;2022-09-01T01:35:36;14.60;99.90
5304;DHT22;2674;49.722;10.892;2022-09-01T01:38:03;14.60;99.90
5304;DHT22;2674;49.722;10.892;2022-09-01T01:40:32;14.50;99.90
5304;DHT22;2674;49.722;10.892;2022-09-01T01:42:58;14.50;99.90
5304;DHT22;2674;49.722;10.892;2022-09-01T01:45:27;14.50;99.90
5304;DHT22;2674;49.722;10.892;2022-09-01T01:47:54;14.50;99.90
5304;DHT22;2674;49.722;10.892;2022-09-01T01:50:30;14.50;99.90
5304;DHT22;2674;49.722;10.892;2022-09-01T01:53:01;14.50;99.90
5304;DHT22;2674;49.722;10.892;2022-09-01T01:55:28;14.60;99.90
5304;DHT22;2674;49.722;10.892;2022-09-01T01:57:56;14.60;99.90
5304;DHT22;2674;49.722;10.892;2022-09-01T02:00:25;14.60;99.90
5304;DHT22;2674;49.722;10.892;2022-09-01T02:02:52;14.70;99.90
5304;DHT22;2674;49.722;10.892;2022-09-01T02:05:25;14.70;99.90
5304;DHT22;2674;49.722;10.892;2022-09-01T02:08:05;14.80;99.90
5304;DHT22;2674;49.722;10.892;2022-09-01T02:10:41;14.80;99.90
5304;DHT22;2674;49.722;10.892;2022-09-01T02:13:10;14.90;99.90
5304;DHT22;2674;49.722;10.892;2022-09-01T02:15:43;14.90;99.90
5304;DHT22;2674;49.722;10.892;2022-09-01T02:18:19;14.90;99.90
5304;DHT22;2674;49.722;10.892;2022-09-01T02:20:47;14.90;99.90
5304;DHT22;2674;49.722;10.892;2022-09-01T02:23:14;14.90;99.90
5304;DHT22;2674;49.722;10.892;2022-09-01T02:25:49;14.80;99.90
5304;DHT22;2674;49.722;10.892;2022-09-01T02:28:16;14.60;99.90
5304;DHT22;2674;49.722;10.892;2022-09-01T02:30:47;14.70;99.90
5304;DHT22;2674;49.722;10.892;2022-09-01T02:33:17;14.60;99.90
5304;DHT22;2674;49.722;10.892;2022-09-01T02:35:53;14.60;99.90
5304;DHT22;2674;49.722;10.892;2022-09-01T02:38:19;14.50;99.90
5304;DHT22;2674;49.722;10.892;2022-09-01T02:40:48;14.40;99.90
5304;DHT22;2674;49.722;10.892;2022-09-01T02:43:15;14.40;99.90
5304;DHT22;2674;49.722;10.892;2022-09-01T02:45:46;14.30;99.90
5304;DHT22;2674;49.722;10.892;2022-09-01T02:48:12;14.20;99.90
5304;DHT22;2674;49.722;10.892;2022-09-01T02:50:40;14.20;99.90
5304;DHT22;2674;49.722;10.892;2022-09-01T02:53:07;14.20;99.90
5304;DHT22;2674;49.722;10.892;2022-09-01T02:55:40;14.20;99.90
5304;DHT22;2674;49.722;10.892;2022-09-01T02:58:06;14.20;99.90
5304;DHT22;2674;49.722;10.892;2022-09-01T03:00:45;14.10;99.90
5304;DHT22;2674;49.722;10.892;2022-09-01T03:03:17;14.00;99.90
5304;DHT22;2674;49.722;10.892;2022-09-01T03:05:47;14.00;99.90
5304;DHT22;2674;49.722;10.892;2022-09-01T03:08:13;14.00;99.90
5304;DHT22;2674;49.722;10.892;2022-09-01T03:10:43;13.90;99.90
5304;DHT22;2674;49.722;10.892;2022-09-01T03:13:14;13.80;99.90
5304;DHT22;2674;49.722;10.892;2022-09-01T03:15:42;13.80;99.90
5304;DHT22;2674;49.722;10.892;2022-09-01T03:18:09;13.80;99.90
5304;DHT22;2674;49.722;10.892;2022-09-01T03:20:37;13.80;99.90
5304;DHT22;2674;49.722;10.892;2022-09-01T03:23:06;13.80;99.90
5304;DHT22;2674;49.722;10.892;2022-09-01T03:25:34;13.80;99.90
5304;DHT22;2674;49.722;10.892;2022-09-01T03:28:01;13.80;99.90
5304;DHT22;2674;49.722;10.892;2022-09-01T03:30:33;13.80;99.90
5304;DHT22;2674;49.722;10.892;2022-09-01T03:33:01;13.80;99.90
5304;DHT22;2674;49.722;10.892;2022-09-01T03:35:28;13.70;99.90
5304;DHT22;2674;49.722;10.892;2022-09-01T03:37:55;13.70;99.90
5304;DHT22;2674;49.722;10.892;2022-09-01T03:40:30;13.70;99.90
5304;DHT22;2674;49.722;10.892;2022-09-01T03:43:05;13.70;99.90
5304;DHT22;2674;49.722;10.892;2022-09-01T03:45:31;13.70;99.90
5304;DHT22;2674;49.722;10.892;2022-09-01T03:48:04;13.70;99.90
5304;DHT22;2674;49.722;10.892;2022-09-01T03:50:40;13.60;99.90
5304;DHT22;2674;49.722;10.892;2022-09-01T03:53:08;13.60;99.90
5304;DHT22;2674;49.722;10.892;2022-09-01T03:55:35;13.50;99.90
5304;DHT22;2674;49.722;10.892;2022-09-01T03:58:05;13.40;99.90
5304;DHT22;2674;49.722;10.892;2022-09-01T04:00:34;13.30;99.90
5304;DHT22;2674;49.722;10.892;2022-09-01T04:03:03;13.20;99.90
5304;DHT22;2674;49.722;10.892;2022-09-01T04:05:30;13.10;99.90
5304;DHT22;2674;49.722;10.892;2022-09-01T04:08:01;13.00;99.90
5304;DHT22;2674;49.722;10.892;2022-09-01T04:10:29;13.00;99.90
5304;DHT22;2674;49.722;10.892;2022-09-01T04:12:58;13.00;99.90
5304;DHT22;2674;49.722;10.892;2022-09-01T04:15:25;13.00;99.90
5304;DHT22;2674;49.722;10.892;2022-09-01T04:17:52;13.00;99.90
5304;DHT22;2674;49.722;10.892;2022-09-01T04:20:49;13.00;99.90
5304;DHT22;2674;49.722;10.892;2022-09-01T04:23:24;13.00;99.90
5304;DHT22;2674;49.722;10.892;2022-09-01T04:26:11;13.00;99.90
5304;DHT22;2674;49.722;10.892;2022-09-01T04:28:57;13.00;99.90
5304;DHT22;2674;49.722;10.892;2022-09-01T04:31:23;13.00;99.90
5304;DHT22;2674;49.722;10.892;2022-09-01T04:33:51;13.00;99.90
5304;DHT22;2674;49.722;10.892;2022-09-01T04:36:23;13.00;99.90
5304;DHT22;2674;49.722;10.892;2022-09-01T04:38:55;12.90;99.90
5304;DHT22;2674;49.722;10.892;2022-09-01T04:41:23;12.90;99.90
5304;DHT22;2674;49.722;10.892;2022-09-01T04:43:51;12.80;99.90
5304;DHT22;2674;49.722;10.892;2022-09-01T04:46:18;12.80;99.90
5304;DHT22;2674;49.722;10.892;2022-09-01T04:48:44;12.80;99.90
5304;DHT22;2674;49.722;10.892;2022-09-01T04:51:13;12.70;99.90
5304;DHT22;2674;49.722;10.892;2022-09-01T04:53:40;12.80;99.90
5304;DHT22;2674;49.722;10.892;2022-09-01T04:56:08;12.80;99.90
5304;DHT22;2674;49.722;10.892;2022-09-01T04:58:36;12.90;99.90
5304;DHT22;2674;49.722;10.892;2022-09-01T05:01:14;12.80;99.90
5304;DHT22;2674;49.722;10.892;2022-09-01T05:03:40;12.80;99.90
5304;DHT22;2674;49.722;10.892;2022-09-01T05:06:15;12.80;99.90
5304;DHT22;2674;49.722;10.892;2022-09-01T05:08:42;12.80;99.90
5304;DHT22;2674;49.722;10.892;2022-09-01T05:11:11;12.80;99.90
5304;DHT22;2674;49.722;10.892;2022-09-01T05:13:45;12.80;99.90
5304;DHT22;2674;49.722;10.892;2022-09-01T05:16:14;12.90;99.90
5304;DHT22;2674;49.722;10.892;2022-09-01T05:18:43;13.00;99.90
5304;DHT22;2674;49.722;10.892;2022-09-01T05:21:13;13.20;99.90
5304;DHT22;2674;49.722;10.892;2022-09-01T05:23:44;13.30;99.90
5304;DHT22;2674;49.722;10.892;2022-09-01T05:26:23;13.50;99.90
5304;DHT22;2674;49.722;10.892;2022-09-01T05:28:56;13.60;99.90
5304;DHT22;2674;49.722;10.892;2022-09-01T05:31:24;13.90;99.90
5304;DHT22;2674;49.722;10.892;2022-09-01T05:33:53;14.10;99.90
5304;DHT22;2674;49.722;10.892;2022-09-01T05:36:21;14.20;99.90
5304;DHT22;2674;49.722;10.892;2022-09-01T05:38:49;14.40;99.90
5304;DHT22;2674;49.722;10.892;2022-09-01T05:41:18;14.60;99.90
5304;DHT22;2674;49.722;10.892;2022-09-01T05:43:46;14.80;99.90
5304;DHT22;2674;49.722;10.892;2022-09-01T05:46:19;14.90;99.90
5304;DHT22;2674;49.722;10.892;2022-09-01T05:48:47;14.90;99.90
5304;DHT22;2674;49.722;10.892;2022-09-01T05:51:16;15.00;99.90
5304;DHT22;2674;49.722;10.892;2022-09-01T05:53:45;15.10;99.90
5304;DHT22;2674;49.722;10.892;2022-09-01T05:56:11;15.10;99.90
5304;DHT22;2674;49.722;10.892;2022-09-01T05:58:40;15.10;99.90
5304;DHT22;2674;49.722;10.892;2022-09-01T06:01:09;15.10;99.90
5304;DHT22;2674;49.722;10.892;2022-09-01T06:03:41;15.20;99.90
5304;DHT22;2674;49.722;10.892;2022-09-01T06:06:09;15.20;99.90
5304;DHT22;2674;49.722;10.892;2022-09-01T06:08:36;15.30;99.90
5304;DHT22;2674;49.722;10.892;2022-09-01T06:11:02;15.40;99.90
5304;DHT22;2674;49.722;10.892;2022-09-01T06:13:38;15.40;99.90
5304;DHT22;2674;49.722;10.892;2022-09-01T06:16:10;15.50;99.90
5304;DHT22;2674;49.722;10.892;2022-09-01T06:18:37;15.60;99.90
5304;DHT22;2674;49.722;10.892;2022-09-01T06:21:04;15.70;99.90
5304;DHT22;2674;49.722;10.892;2022-09-01T06:23:33;15.80;99.90
5304;DHT22;2674;49.722;10.892;2022-09-01T06:26:01;15.90;99.90
5304;DHT22;2674;49.722;10.892;2022-09-01T06:28:28;16.10;99.90
5304;DHT22;2674;49.722;10.892;2022-09-01T06:30:55;16.10;99.90
5304;DHT22;2674;49.722;10.892;2022-09-01T06:33:23;16.20;99.90
5304;DHT22;2674;49.722;10.892;2022-09-01T06:35:51;16.30;99.90
5304;DHT22;2674;49.722;10.892;2022-09-01T06:38:18;16.30;99.90
5304;DHT22;2674;49.722;10.892;2022-09-01T06:40:45;16.40;99.90
5304;DHT22;2674;49.722;10.892;2022-09-01T06:43:12;16.50;99.90
5304;DHT22;2674;49.722;10.892;2022-09-01T06:45:45;16.50;99.90
5304;DHT22;2674;49.722;10.892;2022-09-01T06:48:18;16.70;99.90
5304;DHT22;2674;49.722;10.892;2022-09-01T06:50:46;16.80;99.90
5304;DHT22;2674;49.722;10.892;2022-09-01T06:53:12;16.90;99.90
5304;DHT22;2674;49.722;10.892;2022-09-01T06:55:46;16.90;99.90
5304;DHT22;2674;49.722;10.892;2022-09-01T06:58:13;16.90;99.90
5304;DHT22;2674;49.722;10.892;2022-09-01T07:00:41;16.90;99.90
5304;DHT22;2674;49.722;10.892;2022-09-01T07:03:09;17.00;99.90
5304;DHT22;2674;49.722;10.892;2022-09-01T07:05:40;17.10;99.90
5304;DHT22;2674;49.722;10.892;2022-09-01T07:08:08;17.20;99.90
5304;DHT22;2674;49.722;10.892;2022-09-01T07:10:46;17.20;99.90
5304;DHT22;2674;49.722;10.892;2022-09-01T07:13:17;17.20;99.90
5304;DHT22;2674;49.722;10.892;2022-09-01T07:15:51;17.30;99.90
5304;DHT22;2674;49.722;10.892;2022-09-01T07:18:21;17.30;99.90
5304;DHT22;2674;49.722;10.892;2022-09-01T07:20:47;17.50;99.90
5304;DHT22;2674;49.722;10.892;2022-09-01T07:23:14;17.60;99.90
5304;DHT22;2674;49.722;10.892;2022-09-01T07:25:43;17.70;99.90
5304;DHT22;2674;49.722;10.892;2022-09-01T07:28:11;17.80;99.90
5304;DHT22;2674;49.722;10.892;2022-09-01T07:30:50;17.90;99.90
5304;DHT22;2674;49.722;10.892;2022-09-01T07:33:19;17.90;99.90
5304;DHT22;2674;49.722;10.892;2022-09-01T07:35:50;17.90;99.90
5304;DHT22;2674;49.722;10.892;2022-09-01T07:38:24;18.00;99.90
5304;DHT22;2674;49.722;10.892;2022-09-01T07:40:50;18.10;99.90
5304;DHT22;2674;49.722;10.892;2022-09-01T07:43:21;18.10;99.90
5304;DHT22;2674;49.722;10.892;2022-09-01T07:45:52;18.20;99.90
5304;DHT22;2674;49.722;10.892;2022-09-01T07:48:22;18.30;99.90
5304;DHT22;2674;49.722;10.892;2022-09-01T07:50:50;18.30;99.90
5304;DHT22;2674;49.722;10.892;2022-09-01T07:53:35;18.40;99.90
5304;DHT22;2674;49.722;10.892;2022-09-01T07:56:08;18.50;99.90
5304;DHT22;2674;49.722;10.892;2022-09-01T07:58:36;18.50;99.90
5304;DHT22;2674;49.722;10.892;2022-09-01T08:01:07;18.60;99.90
5304;DHT22;2674;49.722;10.892;2022-09-01T08:03:34;18.70;99.90
5304;DHT22;2674;49.722;10.892;2022-09-01T08:06:06;18.80;99.90
5304;DHT22;2674;49.722;10.892;2022-09-01T08:08:33;18.90;99.90
5304;DHT22;2674;49.722;10.892;2022-09-01T08:11:00;18.90;99.90
5304;DHT22;2674;49.722;10.892;2022-09-01T08:13:26;19.00;99.90
5304;DHT22;2674;49.722;10.892;2022-09-01T08:15:52;19.10;99.90
5304;DHT22;2674;49.722;10.892;2022-09-01T08:18:18;19.10;99.90
5304;DHT22;2674;49.722;10.892;2022-09-01T08:20:45;19.10;99.90
5304;DHT22;2674;49.722;10.892;2022-09-01T08:23:17;19.20;99.90
5304;DHT22;2674;49.722;10.892;2022-09-01T08:25:45;19.30;99.90
5304;DHT22;2674;49.722;10.892;2022-09-01T08:28:12;19.50;99.90
5304;DHT22;2674;49.722;10.892;2022-09-01T08:30:40;19.50;99.90
5304;DHT22;2674;49.722;10.892;2022-09-01T08:33:07;19.50;99.90
5304;DHT22;2674;49.722;10.892;2022-09-01T08:35:41;19.70;99.90
5304;DHT22;2674;49.722;10.892;2022-09-01T08:38:07;19.80;99.90
5304;DHT22;2674;49.722;10.892;2022-09-01T08:40:33;20.00;99.90
5304;DHT22;2674;49.722;10.892;2022-09-01T08:46:27;20.10;99.90
5304;DHT22;2674;49.722;10.892;2022-09-01T08:48:57;20.20;99.90
5304;DHT22;2674;49.722;10.892;2022-09-01T08:51:34;20.20;99.90
5304;DHT22;2674;49.722;10.892;2022-09-01T08:54:34;20.30;99.90
5304;DHT22;2674;49.722;10.892;2022-09-01T08:57:10;20.40;99.90
5304;DHT22;2674;49.722;10.892;2022-09-01T08:59:38;20.50;99.90
5304;DHT22;2674;49.722;10.892;2022-09-01T09:10:23;20.70;99.90
5304;DHT22;2674;49.722;10.892;2022-09-01T09:23:46;20.80;99.90
5304;DHT22;2674;49.722;10.892;2022-09-01T09:26:13;20.90;99.90
5304;DHT22;2674;49.722;10.892;2022-09-01T09:28:38;21.00;99.90
5304;DHT22;2674;49.722;10.892;2022-09-01T09:31:44;21.00;99.80
5304;DHT22;2674;49.722;10.892;2022-09-01T09:34:33;21.20;99.90
5304;DHT22;2674;49.722;10.892;2022-09-01T09:40:08;21.30;99.40
5304;DHT22;2674;49.722;10.892;2022-09-01T09:42:35;21.20;99.60
5304;DHT22;2674;49.722;10.892;2022-09-01T09:45:20;21.20;99.70
5304;DHT22;2674;49.722;10.892;2022-09-01T09:47:46;21.10;99.60
5304;DHT22;2674;49.722;10.892;2022-09-01T09:50:37;21.10;99.60
5304;DHT22;2674;49.722;10.892;2022-09-01T09:56:03;21.10;99.70
5304;DHT22;2674;49.722;10.892;2022-09-01T09:58:38;21.20;99.90
5304;DHT22;2674;49.722;10.892;2022-09-01T10:01:12;21.30;99.90
5304;DHT22;2674;49.722;10.892;2022-09-01T10:03:46;21.30;99.90
5304;DHT22;2674;49.722;10.892;2022-09-01T10:06:38;21.40;99.90
5304;DHT22;2674;49.722;10.892;2022-09-01T10:09:13;21.50;99.50
5304;DHT22;2674;49.722;10.892;2022-09-01T10:11:41;21.70;99.10
5304;DHT22;2674;49.722;10.892;2022-09-01T10:14:40;21.80;99.20
5304;DHT22;2674;49.722;10.892;2022-09-01T10:17:14;22.10;98.10
5304;DHT22;2674;49.722;10.892;2022-09-01T10:19:57;22.30;97.60
5304;DHT22;2674;49.722;10.892;2022-09-01T10:22:30;22.30;96.60
5304;DHT22;2674;49.722;10.892;2022-09-01T10:24:58;22.40;96.60
5304;DHT22;2674;49.722;10.892;2022-09-01T10:27:29;22.60;96.00
5304;DHT22;2674;49.722;10.892;2022-09-01T10:30:10;22.70;95.50
5304;DHT22;2674;49.722;10.892;2022-09-01T10:32:54;22.80;95.40
5304;DHT22;2674;49.722;10.892;2022-09-01T10:35:26;22.70;94.80
5304;DHT22;2674;49.722;10.892;2022-09-01T10:37:55;22.60;95.10
5304;DHT22;2674;49.722;10.892;2022-09-01T10:42:58;22.50;95.70
5304;DHT22;2674;49.722;10.892;2022-09-01T10:47:53;22.60;94.70
5304;DHT22;2674;49.722;10.892;2022-09-01T10:55:26;22.60;94.60
5304;DHT22;2674;49.722;10.892;2022-09-01T10:58:28;22.80;94.10
5304;DHT22;2674;49.722;10.892;2022-09-01T11:00:55;22.70;93.20
5304;DHT22;2674;49.722;10.892;2022-09-01T11:03:32;22.80;93.80
5304;DHT22;2674;49.722;10.892;2022-09-01T11:06:08;22.70;93.50
5304;DHT22;2674;49.722;10.892;2022-09-01T11:11:18;22.60;92.70
5304;DHT22;2674;49.722;10.892;2022-09-01T11:13:55;22.50;93.60
5304;DHT22;2674;49.722;10.892;2022-09-01T11:28:03;22.30;93.60
5304;DHT22;2674;49.722;10.892;2022-09-01T11:35:43;22.50;93.70
5304;DHT22;2674;49.722;10.892;2022-09-01T11:38:12;22.50;94.70
5304;DHT22;2674;49.722;10.892;2022-09-01T11:40:40;22.50;93.70
5304;DHT22;2674;49.722;10.892;2022-09-01T11:43:13;22.50;94.40
5304;DHT22;2674;49.722;10.892;2022-09-01T11:46:04;22.60;93.50
5304;DHT22;2674;49.722;10.892;2022-09-01T11:48:35;22.50;92.80
5304;DHT22;2674;49.722;10.892;2022-09-01T11:51:02;22.50;93.50
5304;DHT22;2674;49.722;10.892;2022-09-01T11:53:29;22.40;92.80
5304;DHT22;2674;49.722;10.892;2022-09-01T11:56:14;22.40;92.50
5304;DHT22;2674;49.722;10.892;2022-09-01T11:58:41;22.60;93.10
5304;DHT22;2674;49.722;10.892;2022-09-01T12:03:37;22.30;92.40
5304;DHT22;2674;49.722;10.892;2022-09-01T12:06:06;22.30;93.20
5304;DHT22;2674;49.722;10.892;2022-09-01T12:08:37;22.30;94.10
5304;DHT22;2674;49.722;10.892;2022-09-01T12:11:21;22.60;93.00
5304;DHT22;2674;49.722;10.892;2022-09-01T12:16:25;22.80;92.70
5304;DHT22;2674;49.722;10.892;2022-09-01T12:18:54;23.00;91.30
5304;DHT22;2674;49.722;10.892;2022-09-01T12:26:40;23.40;90.60
5304;DHT22;2674;49.722;10.892;2022-09-01T12:29:06;23.30;89.80
5304;DHT22;2674;49.722;10.892;2022-09-01T12:31:33;23.30;91.90
5304;DHT22;2674;49.722;10.892;2022-09-01T12:33:59;23.20;91.30
5304;DHT22;2674;49.722;10.892;2022-09-01T12:36:34;23.40;91.10
5304;DHT22;2674;49.722;10.892;2022-09-01T12:39:22;23.50;91.60
5304;DHT22;2674;49.722;10.892;2022-09-01T12:49:52;23.80;90.40
5304;DHT22;2674;49.722;10.892;2022-09-01T12:54:50;23.70;91.00
5304;DHT22;2674;49.722;10.892;2022-09-01T12:57:30;23.80;91.40
5304;DHT22;2674;49.722;10.892;2022-09-01T13:00:26;23.80;90.10
5304;DHT22;2674;49.722;10.892;2022-09-01T13:05:27;24.30;88.60
5304;DHT22;2674;49.722;10.892;2022-09-01T13:07:55;24.60;87.10
5304;DHT22;2674;49.722;10.892;2022-09-01T13:10:23;24.50;84.80
5304;DHT22;2674;49.722;10.892;2022-09-01T13:12:50;24.40;83.60
5304;DHT22;2674;49.722;10.892;2022-09-01T13:15:16;24.50;82.60
5304;DHT22;2674;49.722;10.892;2022-09-01T13:17:42;24.60;82.20
5304;DHT22;2674;49.722;10.892;2022-09-01T13:20:08;24.50;81.40
5304;DHT22;2674;49.722;10.892;2022-09-01T13:22:37;24.30;82.50
5304;DHT22;2674;49.722;10.892;2022-09-01T13:25:04;24.20;82.70
5304;DHT22;2674;49.722;10.892;2022-09-01T13:27:30;24.40;84.00
5304;DHT22;2674;49.722;10.892;2022-09-01T13:29:56;24.50;82.00
5304;DHT22;2674;49.722;10.892;2022-09-01T13:32:22;24.40;77.40
5304;DHT22;2674;49.722;10.892;2022-09-01T13:34:50;24.40;79.40
5304;DHT22;2674;49.722;10.892;2022-09-01T13:37:18;24.30;79.20
5304;DHT22;2674;49.722;10.892;2022-09-01T13:39:44;24.30;78.00
5304;DHT22;2674;49.722;10.892;2022-09-01T13:42:12;24.20;80.50
5304;DHT22;2674;49.722;10.892;2022-09-01T13:44:38;24.20;79.80
5304;DHT22;2674;49.722;10.892;2022-09-01T13:47:04;24.50;80.00
5304;DHT22;2674;49.722;10.892;2022-09-01T13:49:30;24.40;79.60
5304;DHT22;2674;49.722;10.892;2022-09-01T13:51:56;24.50;79.50
5304;DHT22;2674;49.722;10.892;2022-09-01T13:54:22;24.40;78.30
5304;DHT22;2674;49.722;10.892;2022-09-01T13:56:48;24.30;78.60
5304;DHT22;2674;49.722;10.892;2022-09-01T13:59:14;24.30;77.80
5304;DHT22;2674;49.722;10.892;2022-09-01T14:01:40;24.20;76.90
5304;DHT22;2674;49.722;10.892;2022-09-01T14:04:06;24.50;78.90
5304;DHT22;2674;49.722;10.892;2022-09-01T14:06:32;24.90;78.40
5304;DHT22;2674;49.722;10.892;2022-09-01T14:09:03;25.20;77.30
5304;DHT22;2674;49.722;10.892;2022-09-01T14:11:29;25.50;77.40
5304;DHT22;2674;49.722;10.892;2022-09-01T14:13:56;25.70;75.10
5304;DHT22;2674;49.722;10.892;2022-09-01T14:16:22;25.80;74.30
5304;DHT22;2674;49.722;10.892;2022-09-01T14:18:48;25.40;72.80
5304;DHT22;2674;49.722;10.892;2022-09-01T14:21:15;25.20;76.90
5304;DHT22;2674;49.722;10.892;2022-09-01T14:23:44;25.10;75.60
5304;DHT22;2674;49.722;10.892;2022-09-01T14:26:12;24.80;73.90
5304;DHT22;2674;49.722;10.892;2022-09-01T14:28:40;24.20;75.00
5304;DHT22;2674;49.722;10.892;2022-09-01T14:31:16;23.60;80.50
5304;DHT22;2674;49.722;10.892;2022-09-01T14:33:43;23.40;81.40
5304;DHT22;2674;49.722;10.892;2022-09-01T14:36:18;23.20;82.80
5304;DHT22;2674;49.722;10.892;2022-09-01T14:38:44;23.00;84.10
5304;DHT22;2674;49.722;10.892;2022-09-01T14:41:15;22.70;84.20
5304;DHT22;2674;49.722;10.892;2022-09-01T14:43:41;22.60;85.70
5304;DHT22;2674;49.722;10.892;2022-09-01T14:46:09;22.40;86.50
5304;DHT22;2674;49.722;10.892;2022-09-01T14:48:37;22.30;86.80
5304;DHT22;2674;49.722;10.892;2022-09-01T14:51:03;22.20;87.30
5304;DHT22;2674;49.722;10.892;2022-09-01T14:53:29;22.10;88.00
5304;DHT22;2674;49.722;10.892;2022-09-01T14:56:00;22.00;89.00
5304;DHT22;2674;49.722;10.892;2022-09-01T14:58:28;22.00;88.30
5304;DHT22;2674;49.722;10.892;2022-09-01T15:00:55;22.00;89.00
5304;DHT22;2674;49.722;10.892;2022-09-01T15:03:22;22.00;88.60
5304;DHT22;2674;49.722;10.892;2022-09-01T15:05:51;22.00;88.20
5304;DHT22;2674;49.722;10.892;2022-09-01T15:08:17;21.80;88.60
5304;DHT22;2674;49.722;10.892;2022-09-01T15:10:46;21.90;88.90
5304;DHT22;2674;49.722;10.892;2022-09-01T15:13:12;21.90;88.90
5304;DHT22;2674;49.722;10.892;2022-09-01T15:15:39;21.90;90.00
5304;DHT22;2674;49.722;10.892;2022-09-01T15:18:05;21.80;89.30
5304;DHT22;2674;49.722;10.892;2022-09-01T15:20:30;21.80;89.40
5304;DHT22;2674;49.722;10.892;2022-09-01T15:23:14;21.80;90.10
5304;DHT22;2674;49.722;10.892;2022-09-01T15:25:41;21.80;89.40
5304;DHT22;2674;49.722;10.892;2022-09-01T15:28:08;21.80;90.30
5304;DHT22;2674;49.722;10.892;2022-09-01T15:30:34;21.80;90.40
5304;DHT22;2674;49.722;10.892;2022-09-01T15:33:02;21.70;90.90
5304;DHT22;2674;49.722;10.892;2022-09-01T15:35:29;21.70;91.10
5304;DHT22;2674;49.722;10.892;2022-09-01T15:37:55;21.70;90.80
5304;DHT22;2674;49.722;10.892;2022-09-01T15:40:22;21.70;90.90
5304;DHT22;2674;49.722;10.892;2022-09-01T15:42:48;21.70;90.80
5304;DHT22;2674;49.722;10.892;2022-09-01T15:45:17;21.70;91.10
5304;DHT22;2674;49.722;10.892;2022-09-01T15:47:44;21.80;91.80
5304;DHT22;2674;49.722;10.892;2022-09-01T15:50:15;21.70;91.10
5304;DHT22;2674;49.722;10.892;2022-09-01T15:52:51;21.80;91.70
5304;DHT22;2674;49.722;10.892;2022-09-01T15:55:26;21.70;92.10
5304;DHT22;2674;49.722;10.892;2022-09-01T15:57:53;21.70;91.40
5304;DHT22;2674;49.722;10.892;2022-09-01T16:00:20;21.80;91.20
5304;DHT22;2674;49.722;10.892;2022-09-01T16:02:46;21.80;91.70
5304;DHT22;2674;49.722;10.892;2022-09-01T16:05:13;21.70;91.70
5304;DHT22;2674;49.722;10.892;2022-09-01T16:07:40;21.70;91.90
5304;DHT22;2674;49.722;10.892;2022-09-01T16:10:08;21.70;91.30
5304;DHT22;2674;49.722;10.892;2022-09-01T16:12:38;21.60;90.90
5304;DHT22;2674;49.722;10.892;2022-09-01T16:15:05;21.70;91.70
5304;DHT22;2674;49.722;10.892;2022-09-01T16:17:47;21.60;91.10
5304;DHT22;2674;49.722;10.892;2022-09-01T16:20:23;21.60;91.50
5304;DHT22;2674;49.722;10.892;2022-09-01T16:23:14;21.60;91.90
5304;DHT22;2674;49.722;10.892;2022-09-01T16:25:41;21.60;91.70
5304;DHT22;2674;49.722;10.892;2022-09-01T16:28:28;21.60;91.30
5304;DHT22;2674;49.722;10.892;2022-09-01T16:31:00;21.50;91.50
5304;DHT22;2674;49.722;10.892;2022-09-01T16:33:27;21.50;91.60
5304;DHT22;2674;49.722;10.892;2022-09-01T16:36:17;21.50;91.20
5304;DHT22;2674;49.722;10.892;2022-09-01T16:38:56;21.50;91.30
5304;DHT22;2674;49.722;10.892;2022-09-01T16:42:06;21.40;91.10
5304;DHT22;2674;49.722;10.892;2022-09-01T16:47:38;21.30;91.60
5304;DHT22;2674;49.722;10.892;2022-09-01T17:04:18;21.20;93.20
5304;DHT22;2674;49.722;10.892;2022-09-01T17:06:56;21.20;92.30
5304;DHT22;2674;49.722;10.892;2022-09-01T17:12:03;21.00;92.00
5304;DHT22;2674;49.722;10.892;2022-09-01T17:14:41;20.90;92.20
5304;DHT22;2674;49.722;10.892;2022-09-01T17:17:19;20.90;92.60
5304;DHT22;2674;49.722;10.892;2022-09-01T17:19:45;20.80;92.50
5304;DHT22;2674;49.722;10.892;2022-09-01T17:22:18;20.80;93.00
5304;DHT22;2674;49.722;10.892;2022-09-01T17:25:06;20.70;93.50
5304;DHT22;2674;49.722;10.892;2022-09-01T17:27:52;20.70;93.10
5304;DHT22;2674;49.722;10.892;2022-09-01T17:30:20;20.60;92.80
5304;DHT22;2674;49.722;10.892;2022-09-01T17:41:37;20.40;95.80
5304;DHT22;2674;49.722;10.892;2022-09-01T17:49:37;20.00;96.20
5304;DHT22;2674;49.722;10.892;2022-09-01T17:55:06;19.70;97.20
5304;DHT22;2674;49.722;10.892;2022-09-01T17:57:57;19.60;97.20
5304;DHT22;2674;49.722;10.892;2022-09-01T18:00:29;19.50;98.20
5304;DHT22;2674;49.722;10.892;2022-09-01T18:06:03;19.30;98.10
5304;DHT22;2674;49.722;10.892;2022-09-01T18:11:22;19.10;98.50
5304;DHT22;2674;49.722;10.892;2022-09-01T18:14:13;19.10;99.20
5304;DHT22;2674;49.722;10.892;2022-09-01T18:17:04;19.00;99.30